Levering, Michigan
Current Conditions -  °F | °C
As of 3:54 PM on Tuesday 21 Oct 2014 (Local Time) from KPLN Reporting Station
Clear Clear  
Wind Chill: 45°   Ceiling: Unl
Heat Index: 48°   Visibility: 10mi
Dew Point: 27°   Wind: 7mph
Humidity: 44%   Direction: 360°N
Pressure: 30.21"   Gusts: NA
Location:  45.64°N, 84.79°W
Report Text: KPLN 211954Z AUTO 36006KT 10SM CLR 09/M03 A3021 RMK AO2 SLP237 T00891028
Loading
Personal Weather Stations






























Interactive Weather Map
Tropical Storm Tracking
New forecast layout! Learn more

10-Day Weather Forecast

Advertisements
Track Severe Weather on mobile